createdAt,value
2017-01-04T00:00:50.953Z,99.99
2017-01-04T00:01:50.960Z,99.99
2017-01-04T00:02:50.969Z,99.99
2017-01-04T00:03:50.988Z,99.99
2017-01-04T00:04:50.998Z,99.99
2017-01-04T00:05:51.010Z,99.99
2017-01-04T00:06:51.024Z,99.99
2017-01-04T00:07:51.033Z,99.99
2017-01-04T00:08:51.052Z,99.99
2017-01-04T00:09:51.063Z,99.99
2017-01-04T00:10:51.070Z,99.99
2017-01-04T00:11:51.088Z,99.99
2017-01-04T00:12:51.104Z,99.99
2017-01-04T00:13:51.111Z,99.99
2017-01-04T00:14:51.122Z,99.99
2017-01-04T00:15:51.140Z,99.99
2017-01-04T00:16:51.151Z,99.99
2017-01-04T00:17:51.159Z,99.99
2017-01-04T00:18:51.179Z,99.99
2017-01-04T00:19:51.193Z,99.99
2017-01-04T00:20:51.205Z,99.99
2017-01-04T00:21:51.221Z,99.99
2017-01-04T00:22:51.229Z,99.99
2017-01-04T00:23:51.243Z,99.99
2017-01-04T00:24:51.260Z,99.99
2017-01-04T00:25:51.267Z,99.99
2017-01-04T00:26:51.284Z,99.99
2017-01-04T00:27:51.291Z,99.99
2017-01-04T00:28:51.302Z,99.99
2017-01-04T00:29:51.319Z,99.99
2017-01-04T00:30:51.342Z,99.99
2017-01-04T00:31:51.350Z,99.99
2017-01-04T00:32:51.362Z,99.99
2017-01-04T00:33:51.370Z,99.99
2017-01-04T00:34:51.390Z,99.99
2017-01-04T00:35:51.408Z,99.99
2017-01-04T00:36:51.411Z,99.99
2017-01-04T00:37:51.427Z,99.99
2017-01-04T00:38:51.433Z,99.99
2017-01-04T00:39:51.451Z,99.99
2017-01-04T00:40:51.462Z,99.99
2017-01-04T00:41:51.481Z,99.99
2017-01-04T00:42:51.490Z,99.99
2017-01-04T00:43:51.494Z,99.99
2017-01-04T00:44:51.520Z,99.99
2017-01-04T00:45:51.525Z,99.99
2017-01-04T00:46:51.542Z,99.99
2017-01-04T00:47:51.564Z,99.99
2017-01-04T00:48:51.563Z,99.99
2017-01-04T00:49:51.575Z,99.99
2017-01-04T00:50:51.588Z,99.99
2017-01-04T00:51:51.601Z,99.99
2017-01-04T00:52:51.612Z,99.99
2017-01-04T00:53:51.655Z,99.99
2017-01-04T00:54:51.649Z,99.99
2017-01-04T00:55:51.655Z,99.99
2017-01-04T00:56:51.670Z,99.99
2017-01-04T00:57:51.682Z,99.99
2017-01-04T00:58:51.730Z,99.99
2017-01-04T00:59:51.708Z,99.99
2017-01-04T01:00:51.730Z,99.99
2017-01-04T01:01:51.739Z,99.99
2017-01-04T01:02:51.750Z,99.99
2017-01-04T01:03:51.762Z,99.99
2017-01-04T01:04:51.771Z,99.99
2017-01-04T01:05:51.790Z,99.99
2017-01-04T01:06:51.793Z,99.99
2017-01-04T01:07:51.816Z,99.99
2017-01-04T01:08:51.827Z,99.99
2017-01-04T01:09:51.838Z,99.99
2017-01-04T01:10:51.852Z,99.99
2017-01-04T01:11:51.861Z,99.99
2017-01-04T01:12:51.877Z,99.99
2017-01-04T01:13:51.899Z,99.99
2017-01-04T01:14:51.910Z,99.99
2017-01-04T01:15:51.916Z,99.99
2017-01-04T01:16:51.927Z,99.99
2017-01-04T01:17:51.941Z,99.99
2017-01-04T01:18:51.958Z,99.99
2017-01-04T01:19:51.963Z,99.99
2017-01-04T01:20:51.984Z,99.99
2017-01-04T01:21:51.990Z,99.99
2017-01-04T01:22:52.003Z,99.99
2017-01-04T01:23:52.020Z,99.99
2017-01-04T01:24:52.028Z,99.99
2017-01-04T01:25:52.051Z,99.99
2017-01-04T01:26:52.064Z,99.99
2017-01-04T01:27:52.075Z,99.99
2017-01-04T01:28:52.118Z,99.99
2017-01-04T01:29:52.096Z,99.99
2017-01-04T01:30:52.112Z,99.99
2017-01-04T01:31:52.127Z,99.99
2017-01-04T01:32:52.140Z,99.99
2017-01-04T01:33:52.144Z,99.99
2017-01-04T01:34:52.162Z,99.99
2017-01-04T01:35:52.178Z,99.99
2017-01-04T01:36:52.186Z,99.99
2017-01-04T01:37:52.196Z,99.99
2017-01-04T01:38:52.217Z,99.99
2017-01-04T01:39:52.227Z,99.99
2017-01-04T01:40:52.241Z,99.99
2017-01-04T01:41:52.257Z,99.99
2017-01-04T01:42:52.271Z,99.99
2017-01-04T01:43:52.285Z,99.99
2017-01-04T01:44:52.288Z,99.99
2017-01-04T01:45:52.304Z,99.99
2017-01-04T01:46:52.322Z,99.99
2017-01-04T01:47:52.335Z,99.99
2017-01-04T01:48:52.345Z,99.99
2017-01-04T01:49:52.356Z,99.99
2017-01-04T01:50:52.372Z,99.99
2017-01-04T01:51:52.383Z,99.99
2017-01-04T01:52:52.403Z,99.99
2017-01-04T01:53:52.411Z,99.99
2017-01-04T01:54:52.428Z,99.99
2017-01-04T01:55:52.433Z,99.99
2017-01-04T01:56:52.441Z,99.99
2017-01-04T01:57:52.454Z,99.99
2017-01-04T01:58:52.475Z,99.99
2017-01-04T01:59:52.489Z,99.99
2017-01-04T02:00:52.499Z,99.99
2017-01-04T02:01:52.507Z,99.99
2017-01-04T02:02:52.516Z,99.99
2017-01-04T02:03:52.544Z,99.99
2017-01-04T02:04:52.551Z,99.99
2017-01-04T02:05:52.566Z,99.99
2017-01-04T02:06:52.574Z,99.99
2017-01-04T02:07:52.593Z,99.99
2017-01-04T02:08:52.607Z,99.99
2017-01-04T02:09:52.616Z,99.99
2017-01-04T02:10:52.623Z,99.99
2017-01-04T02:11:52.638Z,99.99
2017-01-04T02:12:52.745Z,99.99
2017-01-04T02:13:52.663Z,99.99
2017-01-04T02:14:52.674Z,99.99
2017-01-04T02:15:52.685Z,99.99
2017-01-04T02:16:52.703Z,99.99
2017-01-04T02:17:52.712Z,99.99
2017-01-04T02:18:52.733Z,99.99
2017-01-04T02:19:52.744Z,99.99
2017-01-04T02:20:52.754Z,99.99
2017-01-04T02:21:52.765Z,99.99
2017-01-04T02:22:52.794Z,99.99
2017-01-04T02:23:52.797Z,99.99
2017-01-04T02:24:52.808Z,99.99
2017-01-04T02:25:52.815Z,99.99
2017-01-04T02:26:52.839Z,99.99
2017-01-04T02:27:52.849Z,99.99
2017-01-04T02:28:52.865Z,99.99
2017-01-04T02:29:52.875Z,99.99
2017-01-04T02:30:52.902Z,99.99
2017-01-04T02:31:52.898Z,99.99
2017-01-04T02:32:52.914Z,99.99
2017-01-04T02:33:52.919Z,99.99
2017-01-04T02:34:52.953Z,99.99
2017-01-04T02:35:52.951Z,99.99
2017-01-04T02:36:52.966Z,99.99
2017-01-04T02:37:52.979Z,99.99
2017-01-04T02:38:53.001Z,99.99
2017-01-04T02:39:53.007Z,99.99
2017-01-04T02:40:53.027Z,99.99
2017-01-04T02:41:53.032Z,99.99
2017-01-04T02:42:53.049Z,99.99
2017-01-04T02:43:53.055Z,99.99
2017-01-04T02:44:53.070Z,99.99
2017-01-04T02:45:53.083Z,99.99
2017-01-04T02:46:53.106Z,99.99
2017-01-04T02:47:53.101Z,99.99
2017-01-04T02:48:53.548Z,99.99
2017-01-04T02:49:53.131Z,99.99
2017-01-04T02:50:53.567Z,99.99
2017-01-04T02:51:53.157Z,99.99
2017-01-04T02:52:53.261Z,99.99
2017-01-04T02:53:53.181Z,99.99
2017-01-04T02:54:53.208Z,99.99
2017-01-04T02:55:53.214Z,99.99
2017-01-04T02:56:53.226Z,99.99
2017-01-04T02:57:53.235Z,99.99
2017-01-04T02:58:53.254Z,99.99
2017-01-04T02:59:53.259Z,99.99
2017-01-04T03:00:53.289Z,99.99
2017-01-04T03:01:53.291Z,99.99
2017-01-04T03:02:53.703Z,99.99
2017-01-04T03:03:53.317Z,99.99
2017-01-04T03:04:53.330Z,99.99
2017-01-04T03:05:53.337Z,99.99
2017-01-04T03:06:53.365Z,99.99
2017-01-04T03:07:53.367Z,99.99
2017-01-04T03:08:53.790Z,99.99
2017-01-04T03:09:53.388Z,99.99
2017-01-04T03:10:53.414Z,99.99
2017-01-04T03:11:53.414Z,99.99
2017-01-04T03:12:53.443Z,99.99
2017-01-04T03:13:53.444Z,99.99
2017-01-04T03:14:53.464Z,99.99
2017-01-04T03:15:53.473Z,99.99
2017-01-04T03:16:53.489Z,99.99
2017-01-04T03:17:53.495Z,99.99
2017-01-04T03:18:53.522Z,99.99
2017-01-04T03:19:53.521Z,99.99
2017-01-04T03:20:53.943Z,99.99
2017-01-04T03:21:53.576Z,99.99
2017-01-04T03:22:53.575Z,99.99
2017-01-04T03:23:53.576Z,99.99
2017-01-04T03:24:53.587Z,99.99
2017-01-04T03:25:53.603Z,99.99
2017-01-04T03:26:53.628Z,99.99
2017-01-04T03:27:53.633Z,99.99
2017-01-04T03:28:53.655Z,99.99
2017-01-04T03:29:53.651Z,99.99
2017-01-04T03:30:53.663Z,99.99
2017-01-04T03:31:53.684Z,99.99
2017-01-04T03:32:53.708Z,99.99
2017-01-04T03:33:53.721Z,99.99
2017-01-04T03:34:53.737Z,99.99
2017-01-04T03:35:53.812Z,99.99
2017-01-04T03:36:53.755Z,99.99
2017-01-04T03:37:53.764Z,99.99
2017-01-04T03:38:53.782Z,99.99
2017-01-04T03:39:53.789Z,99.99
2017-01-04T03:40:53.896Z,99.99
2017-01-04T03:41:53.809Z,99.99
2017-01-04T03:42:53.833Z,99.99
2017-01-04T03:43:53.844Z,99.99
2017-01-04T03:44:53.930Z,99.99
2017-01-04T03:45:53.865Z,99.99
2017-01-04T03:46:54.288Z,99.99
2017-01-04T03:47:53.895Z,99.99
2017-01-04T03:48:53.908Z,99.99
2017-01-04T03:49:53.911Z,99.99
2017-01-04T03:50:53.937Z,99.99
2017-01-04T03:51:53.948Z,99.99
2017-01-04T03:52:53.975Z,99.99
2017-01-04T03:53:53.964Z,99.99
2017-01-04T03:54:53.993Z,99.99
2017-01-04T03:55:53.998Z,99.99
2017-01-04T03:56:54.019Z,99.99
2017-01-04T03:57:54.020Z,99.99
2017-01-04T03:58:54.048Z,99.99
2017-01-04T03:59:54.054Z,99.99
2017-01-04T04:01:54.067Z,99.99
2017-01-04T04:02:54.157Z,99.99
2017-01-04T04:03:54.091Z,99.99
2017-01-04T04:04:54.103Z,99.99
2017-01-04T04:05:54.118Z,99.99
2017-01-04T04:06:54.181Z,99.99
2017-01-04T04:07:54.149Z,99.99
2017-01-04T04:08:54.180Z,99.99
2017-01-04T04:09:54.173Z,99.99
2017-01-04T04:10:54.240Z,99.99
2017-01-04T04:11:54.197Z,99.99
2017-01-04T04:12:54.263Z,99.99
2017-01-04T04:13:54.226Z,99.99
2017-01-04T04:14:54.305Z,99.99
2017-01-04T04:15:54.247Z,99.99
2017-01-04T04:16:54.278Z,99.99
2017-01-04T04:17:54.271Z,99.99
2017-01-04T04:18:54.310Z,99.99
2017-01-04T04:19:54.300Z,99.99
2017-01-04T04:20:54.328Z,99.99
2017-01-04T04:21:54.333Z,99.99
2017-01-04T04:22:54.344Z,99.99
2017-01-04T04:23:54.357Z,99.99
2017-01-04T04:24:54.371Z,99.99
2017-01-04T04:25:54.383Z,99.99
2017-01-04T04:26:54.399Z,99.99
2017-01-04T04:27:54.415Z,99.99
2017-01-04T04:28:54.429Z,99.99
2017-01-04T04:29:54.441Z,99.99
2017-01-04T04:30:54.451Z,99.99
2017-01-04T04:31:54.464Z,99.99
2017-01-04T04:32:54.477Z,99.99
2017-01-04T04:33:54.497Z,99.99
2017-01-04T04:34:54.508Z,99.99
2017-01-04T04:35:54.516Z,99.99
2017-01-04T04:36:54.532Z,99.99
2017-01-04T04:37:54.547Z,99.99
2017-01-04T04:38:54.559Z,99.99
2017-01-04T04:39:54.575Z,99.99
2017-01-04T04:40:54.584Z,99.99
2017-01-04T04:41:54.593Z,99.99
2017-01-04T04:42:54.607Z,99.99
2017-01-04T04:43:54.626Z,99.99
2017-01-04T04:44:54.634Z,99.99
2017-01-04T04:45:54.653Z,99.99
2017-01-04T04:46:54.663Z,99.99
2017-01-04T04:47:54.679Z,99.99
2017-01-04T04:48:54.699Z,99.99
2017-01-04T04:49:54.702Z,99.99
2017-01-04T04:50:54.718Z,99.99
2017-01-04T04:51:54.734Z,99.99
2017-01-04T04:52:54.744Z,99.99
2017-01-04T04:53:54.754Z,99.99
2017-01-04T04:54:54.771Z,99.99
2017-01-04T04:55:54.807Z,99.99
2017-01-04T04:56:54.789Z,99.99
2017-01-04T04:57:54.807Z,99.99
2017-01-04T04:58:54.822Z,99.99
2017-01-04T04:59:54.839Z,99.99
2017-01-04T05:00:54.848Z,99.99
2017-01-04T05:01:54.866Z,99.99
2017-01-04T05:02:54.879Z,99.99
2017-01-04T05:03:54.911Z,99.99
2017-01-04T05:04:54.900Z,99.99
2017-01-04T05:05:54.920Z,99.99
2017-01-04T05:06:54.923Z,99.99
2017-01-04T05:07:54.936Z,99.99
2017-01-04T05:08:54.960Z,99.99
2017-01-04T05:09:54.969Z,99.99
2017-01-04T05:10:54.978Z,99.99
2017-01-04T05:11:54.991Z,99.99
2017-01-04T05:12:55.015Z,99.99
2017-01-04T05:13:55.099Z,99.99
2017-01-04T05:14:55.038Z,99.99
2017-01-04T05:15:55.052Z,99.99
2017-01-04T05:16:55.064Z,99.99
2017-01-04T05:17:55.072Z,99.99
2017-01-04T05:18:55.087Z,99.99
2017-01-04T05:19:55.098Z,99.99
2017-01-04T05:20:55.123Z,99.99
2017-01-04T05:21:55.124Z,99.99
2017-01-04T05:22:55.145Z,99.99
2017-01-04T05:23:55.154Z,99.99
2017-01-04T05:24:55.167Z,99.99
2017-01-04T05:25:55.186Z,99.99
2017-01-04T05:26:55.276Z,99.99
2017-01-04T05:27:55.207Z,99.99
2017-01-04T05:28:55.223Z,99.99
2017-01-04T05:29:55.237Z,99.99
2017-01-04T05:30:55.250Z,99.99
2017-01-04T05:31:55.254Z,99.99
2017-01-04T05:32:55.269Z,99.99
2017-01-04T05:33:55.285Z,99.99
2017-01-04T05:34:55.299Z,99.99
2017-01-04T05:35:55.317Z,99.99
2017-01-04T05:36:55.320Z,99.99
2017-01-04T05:37:55.351Z,99.99
2017-01-04T05:38:55.349Z,99.99
2017-01-04T05:39:55.373Z,99.99
2017-01-04T05:40:55.379Z,99.99
2017-01-04T05:41:55.399Z,99.99
2017-01-04T05:42:55.401Z,99.99
2017-01-04T05:43:55.420Z,99.99
2017-01-04T05:44:55.435Z,99.99
2017-01-04T05:45:55.438Z,99.99
2017-01-04T05:46:55.463Z,99.99
2017-01-04T05:47:55.479Z,99.99
2017-01-04T05:48:55.484Z,99.99
2017-01-04T05:49:55.505Z,99.99
2017-01-04T05:50:55.519Z,99.99
2017-01-04T05:51:55.521Z,99.99
2017-01-04T05:52:55.535Z,99.99
2017-01-04T05:53:55.555Z,99.99
2017-01-04T05:54:55.559Z,99.99
2017-01-04T05:55:55.668Z,99.99
2017-01-04T05:56:55.595Z,99.99
2017-01-04T05:57:55.605Z,99.99
2017-01-04T05:58:55.624Z,99.99
2017-01-04T05:59:55.635Z,99.99
2017-01-04T06:00:55.646Z,99.99
2017-01-04T06:01:55.666Z,99.99
2017-01-04T06:02:55.676Z,99.99
2017-01-04T06:03:55.682Z,99.99
2017-01-04T06:04:55.699Z,99.99
2017-01-04T06:05:55.713Z,99.99
2017-01-04T06:06:55.728Z,99.99
2017-01-04T06:07:55.740Z,99.99
2017-01-04T06:08:55.750Z,99.99
2017-01-04T06:09:55.774Z,99.99
2017-01-04T06:10:55.783Z,99.99
2017-01-04T06:11:55.792Z,99.99
2017-01-04T06:12:55.815Z,99.99
2017-01-04T06:13:55.843Z,99.99
2017-01-04T06:14:55.833Z,99.99
2017-01-04T06:15:55.853Z,99.99
2017-01-04T06:16:55.871Z,99.99
2017-01-04T06:17:55.876Z,99.99
2017-01-04T06:18:55.893Z,99.99
2017-01-04T06:19:55.903Z,99.99
2017-01-04T06:20:55.910Z,99.99
2017-01-04T06:21:55.926Z,99.99
2017-01-04T06:22:55.943Z,99.99
2017-01-04T06:23:55.955Z,99.99
2017-01-04T06:24:55.966Z,99.99
2017-01-04T06:25:55.988Z,99.99
2017-01-04T06:26:55.994Z,99.99
2017-01-04T06:27:56.006Z,99.99
2017-01-04T06:28:56.016Z,99.99
2017-01-04T06:29:56.036Z,99.99
2017-01-04T06:30:56.046Z,99.99
2017-01-04T06:31:56.056Z,99.99
2017-01-04T06:32:56.079Z,99.99
2017-01-04T06:33:56.087Z,99.99
2017-01-04T06:34:56.100Z,99.99
2017-01-04T06:35:56.113Z,99.99
2017-01-04T06:36:56.125Z,99.99
2017-01-04T06:37:56.136Z,99.99
2017-01-04T06:38:56.159Z,99.99
2017-01-04T06:39:56.164Z,99.99
2017-01-04T06:40:56.180Z,99.99
2017-01-04T06:41:56.198Z,99.99
2017-01-04T06:42:56.204Z,99.99
2017-01-04T06:43:56.228Z,99.99
2017-01-04T06:44:56.234Z,99.99
2017-01-04T06:45:56.247Z,99.99
2017-01-04T06:46:56.264Z,99.99
2017-01-04T06:47:56.269Z,99.99
2017-01-04T06:48:56.318Z,99.99
2017-01-04T06:49:56.304Z,99.99
2017-01-04T06:50:56.319Z,99.99
2017-01-04T06:51:56.333Z,99.99
2017-01-04T06:52:56.348Z,99.99
2017-01-04T06:53:56.346Z,99.99
2017-01-04T06:54:56.366Z,99.99
2017-01-04T06:55:56.383Z,99.99
2017-01-04T06:56:56.447Z,99.99
2017-01-04T06:57:56.407Z,99.99
2017-01-04T06:58:56.449Z,99.99
2017-01-04T06:59:56.431Z,99.99
2017-01-04T07:00:56.523Z,99.99
2017-01-04T07:01:56.453Z,99.99
2017-01-04T07:02:56.528Z,99.99
2017-01-04T07:03:56.482Z,99.99
2017-01-04T07:04:56.537Z,99.99
2017-01-04T07:05:56.584Z,99.99
2017-01-04T07:06:56.980Z,99.99
2017-01-04T07:07:56.537Z,99.99
2017-01-04T07:08:56.604Z,99.99
2017-01-04T07:09:56.567Z,99.99
2017-01-04T07:10:56.623Z,99.99
2017-01-04T07:11:56.584Z,99.99
2017-01-04T07:12:56.628Z,99.99
2017-01-04T07:13:56.610Z,99.99
2017-01-04T07:14:56.626Z,99.99
2017-01-04T07:15:56.638Z,99.99
2017-01-04T07:16:56.656Z,99.99
2017-01-04T07:17:56.660Z,99.99
2017-01-04T07:18:56.672Z,99.99
2017-01-04T07:19:56.687Z,99.99
2017-01-04T07:20:56.705Z,99.99
2017-01-04T07:21:56.713Z,99.99
2017-01-04T07:22:56.728Z,99.99
2017-01-04T07:23:56.733Z,99.99
2017-01-04T07:24:56.751Z,99.99
2017-01-04T07:25:56.762Z,99.99
2017-01-04T07:26:56.783Z,99.99
2017-01-04T07:27:56.871Z,99.99
2017-01-04T07:28:56.808Z,99.99
2017-01-04T07:29:56.822Z,99.99
2017-01-04T07:30:56.830Z,99.99
2017-01-04T07:31:56.846Z,99.99
2017-01-04T07:32:56.855Z,99.99
2017-01-04T07:33:56.862Z,99.99
2017-01-04T07:34:56.883Z,99.99
2017-01-04T07:35:56.899Z,99.99
2017-01-04T07:36:56.905Z,99.99
2017-01-04T07:37:56.921Z,99.99
2017-01-04T07:38:56.938Z,99.99
2017-01-04T07:39:56.942Z,99.99
2017-01-04T07:40:56.957Z,99.99
2017-01-04T07:41:56.968Z,99.99
2017-01-04T07:42:56.987Z,99.99
2017-01-04T07:43:56.999Z,99.99
2017-01-04T07:44:57.012Z,99.99
2017-01-04T07:45:57.029Z,99.99
2017-01-04T07:46:57.033Z,99.99
2017-01-04T07:47:57.059Z,99.99
2017-01-04T07:48:57.062Z,99.99
2017-01-04T07:49:57.079Z,99.99
2017-01-04T07:50:57.090Z,99.99
2017-01-04T07:51:57.103Z,99.99
2017-01-04T07:52:57.108Z,99.99
2017-01-04T07:53:57.121Z,99.99
2017-01-04T07:54:57.140Z,99.99
2017-01-04T07:55:57.151Z,99.99
2017-01-04T07:56:57.172Z,99.99
2017-01-04T07:57:57.179Z,99.99
2017-01-04T07:58:57.196Z,99.99
2017-01-04T07:59:57.205Z,99.99
2017-01-04T08:00:57.217Z,99.99
2017-01-04T08:01:57.227Z,99.99
2017-01-04T08:02:57.247Z,99.99
2017-01-04T08:03:57.251Z,99.99
2017-01-04T08:04:57.264Z,99.99
2017-01-04T08:05:57.286Z,99.99
2017-01-04T08:06:57.296Z,99.99
2017-01-04T08:07:57.306Z,99.99
2017-01-04T08:08:57.325Z,99.99
2017-01-04T08:09:57.331Z,99.99
2017-01-04T08:10:57.352Z,99.99
2017-01-04T08:11:57.360Z,99.99
2017-01-04T08:12:57.376Z,99.99
2017-01-04T08:13:57.381Z,99.99
2017-01-04T08:14:57.393Z,99.99
2017-01-04T08:15:57.414Z,99.99
2017-01-04T08:16:57.428Z,99.99
2017-01-04T08:17:57.442Z,99.99
2017-01-04T08:18:57.452Z,99.99
2017-01-04T08:19:57.467Z,99.99
2017-01-04T08:20:57.477Z,99.99
2017-01-04T08:21:57.515Z,99.99
2017-01-04T08:22:57.510Z,99.99
2017-01-04T08:23:57.516Z,99.99
2017-01-04T08:24:57.534Z,99.99
2017-01-04T08:25:57.551Z,99.99
2017-01-04T08:26:57.557Z,99.99
2017-01-04T08:27:57.563Z,99.99
2017-01-04T08:28:57.577Z,99.99
2017-01-04T08:29:57.594Z,99.99
2017-01-04T08:30:57.614Z,99.99
2017-01-04T08:31:57.618Z,99.99
2017-01-04T08:32:57.633Z,99.99
2017-01-04T08:33:57.651Z,99.99
2017-01-04T08:34:57.666Z,99.99
2017-01-04T08:35:57.675Z,99.99
2017-01-04T08:36:57.689Z,99.34
2017-01-04T08:37:57.701Z,98.96
2017-01-04T08:38:57.721Z,98.77
2017-01-04T08:39:57.733Z,98.58
2017-01-04T08:40:57.740Z,99.06
2017-01-04T08:41:57.759Z,99.72
2017-01-04T08:42:57.770Z,99.82
2017-01-04T08:43:57.787Z,99.99
2017-01-04T08:44:57.798Z,99.99
2017-01-04T08:45:57.814Z,99.99
2017-01-04T08:46:57.819Z,99.99
2017-01-04T08:47:57.841Z,99.99
2017-01-04T08:48:57.936Z,99.99
2017-01-04T08:49:57.862Z,99.99
2017-01-04T08:50:57.879Z,99.99
2017-01-04T08:51:57.894Z,99.99
2017-01-04T08:52:57.903Z,99.99
2017-01-04T08:53:57.918Z,99.99
2017-01-04T08:54:57.937Z,99.99
2017-01-04T08:55:57.949Z,99.99
2017-01-04T08:56:57.963Z,99.72
2017-01-04T08:57:57.971Z,99.25
2017-01-04T08:58:57.988Z,99.25
2017-01-04T08:59:58.000Z,98.68
2017-01-04T09:00:58.011Z,98.58
2017-01-04T09:01:58.025Z,98.21
2017-01-04T09:02:58.043Z,98.68
2017-01-04T09:03:58.053Z,98.49
2017-01-04T09:04:58.071Z,98.77
2017-01-04T09:05:58.077Z,98.68
2017-01-04T09:06:58.094Z,99.25
2017-01-04T09:07:58.107Z,99.53
2017-01-04T09:08:58.127Z,99.82
2017-01-04T09:09:58.133Z,99.99
2017-01-04T09:10:58.145Z,99.99
2017-01-04T09:11:58.162Z,99.99
2017-01-04T09:12:58.178Z,99.99
2017-01-04T09:13:58.192Z,99.82
2017-01-04T09:14:58.202Z,99.63
2017-01-04T09:15:58.211Z,99.53
2017-01-04T09:16:58.228Z,99.91
2017-01-04T09:17:58.238Z,99.99
2017-01-04T09:18:58.252Z,99.99
2017-01-04T09:19:58.270Z,99.99
2017-01-04T09:20:58.280Z,99.91
2017-01-04T09:21:58.316Z,99.44
2017-01-04T09:22:58.314Z,99.34
2017-01-04T09:23:58.323Z,99.44
2017-01-04T09:24:58.337Z,99.25
2017-01-04T09:25:58.345Z,99.25
2017-01-04T09:26:58.366Z,98.96
2017-01-04T09:27:58.377Z,98.49
2017-01-04T09:28:58.388Z,98.87
2017-01-04T09:29:58.402Z,98.87
2017-01-04T09:30:58.414Z,98.68
2017-01-04T09:31:58.428Z,98.87
2017-01-04T09:32:58.447Z,98.11
2017-01-04T09:33:58.453Z,97.92
2017-01-04T09:34:58.464Z,97.45
2017-01-04T09:35:58.482Z,97.26
2017-01-04T09:36:58.497Z,96.78
2017-01-04T09:37:58.504Z,96.12
2017-01-04T09:38:58.515Z,96.31
2017-01-04T09:39:58.536Z,96.88
2017-01-04T09:40:58.548Z,96.12
2017-01-04T09:41:58.555Z,96.5
2017-01-04T09:42:58.574Z,96.12
2017-01-04T09:43:58.579Z,96.03
2017-01-04T09:44:58.601Z,96.59
2017-01-04T09:45:58.607Z,97.07
2017-01-04T09:46:58.629Z,96.78
2017-01-04T09:47:58.639Z,97.16
2017-01-04T09:48:58.656Z,96.97
2017-01-04T09:49:58.669Z,96.88
2017-01-04T09:50:58.685Z,97.26
2017-01-04T09:51:58.694Z,97.54
2017-01-04T09:52:58.707Z,96.88
2017-01-04T09:53:58.745Z,96.22
2017-01-04T09:54:58.731Z,96.5
2017-01-04T09:55:58.751Z,96.88
2017-01-04T09:56:58.760Z,96.59
2017-01-04T09:57:58.797Z,97.16
2017-01-04T09:58:58.786Z,97.35
2017-01-04T09:59:58.795Z,96.78
2017-01-04T10:00:58.821Z,97.35
2017-01-04T10:01:58.880Z,97.35
2017-01-04T10:02:58.840Z,97.54
2017-01-04T10:03:58.854Z,97.64
2017-01-04T10:04:58.861Z,97.35
2017-01-04T10:05:58.877Z,97.54
2017-01-04T10:06:58.886Z,98.21
2017-01-04T10:07:58.911Z,98.39
2017-01-04T10:08:58.913Z,98.49
2017-01-04T10:09:58.938Z,98.77
2017-01-04T10:10:58.943Z,98.96
2017-01-04T10:11:58.962Z,99.06
2017-01-04T10:12:58.984Z,99.34
2017-01-04T10:13:58.981Z,99.63
2017-01-04T10:14:59.005Z,99.91
2017-01-04T10:15:59.016Z,99.99
2017-01-04T10:16:59.031Z,99.99
2017-01-04T10:17:59.040Z,99.99
2017-01-04T10:18:59.058Z,99.99
2017-01-04T10:19:59.067Z,99.99
2017-01-04T10:20:59.084Z,99.99
2017-01-04T10:21:59.092Z,99.99
2017-01-04T10:22:59.110Z,99.99
2017-01-04T10:23:59.124Z,99.99
2017-01-04T10:24:59.136Z,99.99
2017-01-04T10:25:59.147Z,99.99
2017-01-04T10:26:59.162Z,99.99
2017-01-04T10:27:59.176Z,99.99
2017-01-04T10:28:59.187Z,99.99
2017-01-04T10:29:59.201Z,99.99
2017-01-04T10:30:59.218Z,99.99
2017-01-04T10:31:59.223Z,99.72
2017-01-04T10:32:59.243Z,99.91
2017-01-04T10:33:59.291Z,99.63
2017-01-04T10:34:59.270Z,99.63
2017-01-04T10:35:59.279Z,99.63
2017-01-04T10:36:59.295Z,98.58
2017-01-04T10:37:59.308Z,97.92
2017-01-04T10:38:59.318Z,98.02
2017-01-04T10:39:59.341Z,97.54
2017-01-04T10:40:59.350Z,97.07
2017-01-04T10:41:59.366Z,97.07
2017-01-04T10:42:59.382Z,97.26
2017-01-04T10:43:59.398Z,97.07
2017-01-04T10:44:59.407Z,97.16
2017-01-04T10:45:59.425Z,96.88
2017-01-04T10:46:59.429Z,96.5
2017-01-04T10:47:59.447Z,96.59
2017-01-04T10:48:59.463Z,96.41
2017-01-04T10:49:59.471Z,96.5
2017-01-04T10:50:59.485Z,96.41
2017-01-04T10:51:59.498Z,96.97
2017-01-04T10:52:59.513Z,97.07
2017-01-04T10:53:59.520Z,97.07
2017-01-04T10:54:59.544Z,96.97
2017-01-04T10:55:59.557Z,97.45
2017-01-04T10:56:59.564Z,96.97
2017-01-04T10:57:59.580Z,96.69
2017-01-04T10:58:59.596Z,96.5
2017-01-04T10:59:59.609Z,96.5
2017-01-04T11:00:59.626Z,96.78
2017-01-04T11:01:59.635Z,96.5
2017-01-04T11:02:59.645Z,96.41
2017-01-04T11:03:59.669Z,96.41
2017-01-04T11:04:59.675Z,95.84
2017-01-04T11:05:59.684Z,95.74
2017-01-04T11:06:59.701Z,95.65
2017-01-04T11:07:59.722Z,95.45
2017-01-04T11:08:59.735Z,94.79
2017-01-04T11:09:59.741Z,94.23
2017-01-04T11:10:59.753Z,93.37
2017-01-04T11:11:59.770Z,93.27
2017-01-04T11:12:59.786Z,92.52
2017-01-04T11:13:59.798Z,92.52
2017-01-04T11:14:59.813Z,92.23
2017-01-04T11:15:59.822Z,92.52
2017-01-04T11:16:59.839Z,92.14
2017-01-04T11:17:59.850Z,91.95
2017-01-04T11:18:59.867Z,92.14
2017-01-04T11:19:59.882Z,92.42
2017-01-04T11:20:59.891Z,92.33
2017-01-04T11:21:59.902Z,91.38
2017-01-04T11:22:59.926Z,90.91
2017-01-04T11:23:59.935Z,91.19
2017-01-04T11:24:59.947Z,91.38
2017-01-04T11:25:59.957Z,91.47
2017-01-04T11:26:59.976Z,90.91
2017-01-04T11:27:59.984Z,89.58
2017-01-04T11:29:00.002Z,89.96
2017-01-04T11:30:00.017Z,89.29
2017-01-04T11:31:00.028Z,89.11
2017-01-04T11:32:00.047Z,89.01
2017-01-04T11:33:00.053Z,88.82
2017-01-04T11:34:00.074Z,89.11
2017-01-04T11:35:00.083Z,88.82
2017-01-04T11:36:00.089Z,89.39
2017-01-04T11:37:00.111Z,88.54
2017-01-04T11:38:00.123Z,88.44
2017-01-04T11:39:00.135Z,89.01
2017-01-04T11:40:00.150Z,89.29
2017-01-04T11:41:00.163Z,88.44
2017-01-04T11:42:00.182Z,89.01
2017-01-04T11:43:00.191Z,89.58
2017-01-04T11:44:00.206Z,89.58
2017-01-04T11:45:00.214Z,89.29
2017-01-04T11:46:00.248Z,90.15
2017-01-04T11:47:00.239Z,90.24
2017-01-04T11:48:00.264Z,89.39
2017-01-04T11:49:00.278Z,89.77
2017-01-04T11:50:00.278Z,90.24
2017-01-04T11:51:00.299Z,90.81
2017-01-04T11:52:00.316Z,90.15
2017-01-04T11:53:00.328Z,90.81
2017-01-04T11:54:00.338Z,91.09
2017-01-04T11:55:00.351Z,90.91
2017-01-04T11:56:00.360Z,91
2017-01-04T11:57:00.381Z,91.38
2017-01-04T11:58:00.385Z,91.66
2017-01-04T11:59:00.401Z,91.95
2017-01-04T12:00:00.416Z,92.23
2017-01-04T12:01:00.428Z,92.04
2017-01-04T12:02:00.452Z,92.14
2017-01-04T12:03:00.457Z,91.85
2017-01-04T12:04:00.468Z,92.42
2017-01-04T12:05:00.481Z,92.61
2017-01-04T12:06:00.502Z,93.08
2017-01-04T12:07:00.514Z,93.08
2017-01-04T12:08:00.521Z,92.8
2017-01-04T12:09:00.538Z,93.18
2017-01-04T12:10:00.554Z,93.65
2017-01-04T12:11:00.570Z,94.04
2017-01-04T12:12:00.574Z,93.84
2017-01-04T12:13:00.593Z,94.04
2017-01-04T12:14:00.609Z,93.56
2017-01-04T12:15:00.647Z,93.46
2017-01-04T12:16:00.628Z,93.65
2017-01-04T12:17:00.661Z,94.23
2017-01-04T12:18:00.657Z,94.23
2017-01-04T12:19:00.678Z,94.6
2017-01-04T12:20:00.688Z,94.89
2017-01-04T12:21:00.760Z,94.79
2017-01-04T12:22:00.718Z,94.7
2017-01-04T12:23:00.763Z,94.51
2017-01-04T12:24:00.740Z,94.6
2017-01-04T12:25:00.844Z,94.98
2017-01-04T12:26:00.767Z,95.36
2017-01-04T12:27:00.851Z,95.36
2017-01-04T12:28:00.797Z,95.17
2017-01-04T12:29:00.870Z,94.89
2017-01-04T12:30:00.820Z,94.32
2017-01-04T12:31:00.869Z,94.51
2017-01-04T12:32:00.852Z,94.42
2017-01-04T12:33:00.897Z,94.79
2017-01-04T12:34:00.886Z,94.23
2017-01-04T12:35:00.954Z,93.56
2017-01-04T12:36:00.907Z,93.46
2017-01-04T12:37:00.961Z,93.46
2017-01-04T12:38:00.930Z,93.46
2017-01-04T12:39:00.969Z,93.18
2017-01-04T12:40:00.962Z,92.99
2017-01-04T12:41:01.008Z,92.76
2017-01-04T12:42:00.988Z,92.66
2017-01-04T12:43:01.007Z,92.47
2017-01-04T12:44:01.017Z,92.28
2017-01-04T12:45:01.033Z,92.38
2017-01-04T12:46:01.048Z,92.09
2017-01-04T12:47:01.054Z,92.18
2017-01-04T12:48:01.076Z,91.71
2017-01-04T12:49:01.083Z,91.99
2017-01-04T12:50:01.103Z,92.38
2017-01-04T12:51:01.117Z,91.99
2017-01-04T12:52:01.122Z,91.99
2017-01-04T12:53:01.140Z,92.18
2017-01-04T12:54:01.160Z,92.38
2017-01-04T12:55:01.169Z,92.14